createdAt,value
2022-09-18T00:00:35.934Z,1006.74
2022-09-18T00:01:35.987Z,1006.77
2022-09-18T00:02:35.995Z,1006.81
2022-09-18T00:03:35.941Z,1006.76
2022-09-18T00:04:35.942Z,1006.75
2022-09-18T00:05:35.947Z,1006.66
2022-09-18T00:06:35.938Z,1006.73
2022-09-18T00:07:35.949Z,1006.71
2022-09-18T00:08:35.934Z,1006.77
2022-09-18T00:09:35.935Z,1006.72
2022-09-18T00:10:36.002Z,1006.7
2022-09-18T00:11:35.924Z,1006.67
2022-09-18T00:12:35.951Z,1006.69
2022-09-18T00:13:35.921Z,1006.64
2022-09-18T00:14:35.922Z,1006.66
2022-09-18T00:15:35.921Z,1006.66
2022-09-18T00:16:36.095Z,1006.71
2022-09-18T00:17:35.939Z,1006.62
2022-09-18T00:18:35.932Z,1006.65
2022-09-18T00:19:35.927Z,1006.64
2022-09-18T00:20:35.930Z,1006.84
2022-09-18T00:21:35.929Z,1006.87
2022-09-18T00:22:35.938Z,1006.85
2022-09-18T00:23:35.938Z,1006.87
2022-09-18T00:24:35.931Z,1006.86
2022-09-18T00:25:35.934Z,1006.84
2022-09-18T00:26:35.942Z,1006.89
2022-09-18T00:27:35.954Z,1006.88
2022-09-18T00:28:35.944Z,1006.87
2022-09-18T00:29:35.936Z,1006.93
2022-09-18T00:30:35.933Z,1006.89
2022-09-18T00:31:36.034Z,1006.94
2022-09-18T00:32:35.955Z,1006.86
2022-09-18T00:33:35.945Z,1006.84
2022-09-18T00:34:35.939Z,1006.89
2022-09-18T00:35:35.943Z,1006.87
2022-09-18T00:36:35.945Z,1006.87
2022-09-18T00:37:35.943Z,1006.9
2022-09-18T00:38:35.942Z,1006.87
2022-09-18T00:39:35.938Z,1006.82
2022-09-18T00:40:36.013Z,1006.88
2022-09-18T00:41:35.952Z,1006.85
2022-09-18T00:42:35.958Z,1006.85
2022-09-18T00:43:35.938Z,1006.83
2022-09-18T00:44:35.938Z,1006.82
2022-09-18T00:45:35.939Z,1006.84
2022-09-18T00:46:36.038Z,1006.84
2022-09-18T00:47:35.953Z,1006.85
2022-09-18T00:48:35.934Z,1006.83
2022-09-18T00:49:35.942Z,1006.83
2022-09-18T00:50:35.936Z,1006.81
2022-09-18T00:51:35.934Z,1006.85
2022-09-18T00:52:35.943Z,1006.82
2022-09-18T00:53:35.934Z,1006.79
2022-09-18T00:54:35.938Z,1006.79
2022-09-18T00:55:35.928Z,1006.82
2022-09-18T00:56:35.938Z,1006.77
2022-09-18T00:57:35.942Z,1006.79
2022-09-18T00:58:35.930Z,1006.79
2022-09-18T00:59:35.937Z,1006.77
2022-09-18T01:00:36.049Z,1006.75
2022-09-18T01:01:35.985Z,1006.73
2022-09-18T01:02:35.957Z,1006.74
2022-09-18T01:03:35.945Z,1006.79
2022-09-18T01:04:35.937Z,1006.74
2022-09-18T01:05:35.953Z,1006.72
2022-09-18T01:06:35.934Z,1006.67
2022-09-18T01:07:35.936Z,1006.69
2022-09-18T01:08:37.706Z,1006.7
2022-09-18T01:09:35.930Z,1006.62
2022-09-18T01:10:35.935Z,1006.69
2022-09-18T01:11:35.939Z,1006.65
2022-09-18T01:12:35.957Z,1006.67
2022-09-18T01:13:35.943Z,1006.46
2022-09-18T01:14:35.936Z,1006.47
2022-09-18T01:15:35.935Z,1006.47
2022-09-18T01:16:35.981Z,1006.45
2022-09-18T01:17:35.955Z,1006.41
2022-09-18T01:18:35.932Z,1006.44
2022-09-18T01:19:35.926Z,1006.43
2022-09-18T01:20:35.928Z,1006.45
2022-09-18T01:21:35.928Z,1006.38
2022-09-18T01:22:35.943Z,1006.42
2022-09-18T01:23:35.926Z,1006.46
2022-09-18T01:24:35.925Z,1006.47
2022-09-18T01:25:35.927Z,1006.44
2022-09-18T01:26:35.942Z,1006.4
2022-09-18T01:27:35.942Z,1006.55
2022-09-18T01:28:35.930Z,1006.58
2022-09-18T01:29:35.923Z,1006.56
2022-09-18T01:30:35.928Z,1006.56
2022-09-18T01:31:35.960Z,1006.55
2022-09-18T01:32:35.938Z,1006.48
2022-09-18T01:33:35.933Z,1006.59
2022-09-18T01:34:35.932Z,1006.55
2022-09-18T01:35:42.065Z,1006.59
2022-09-18T01:36:35.942Z,1006.57
2022-09-18T01:37:35.953Z,1006.51
2022-09-18T01:38:35.933Z,1006.56
2022-09-18T01:39:35.923Z,1006.59
2022-09-18T01:40:35.964Z,1006.55
2022-09-18T01:41:35.937Z,1006.62
2022-09-18T01:42:35.946Z,1006.57
2022-09-18T01:43:35.932Z,1006.45
2022-09-18T01:44:35.932Z,1006.46
2022-09-18T01:45:35.938Z,1006.62
2022-09-18T01:46:36.034Z,1006.58
2022-09-18T01:47:35.948Z,1006.57
2022-09-18T01:48:35.939Z,1006.49
2022-09-18T01:49:35.940Z,1006.47
2022-09-18T01:50:35.940Z,1006.48
2022-09-18T01:51:35.936Z,1006.43
2022-09-18T01:52:35.951Z,1006.43
2022-09-18T01:53:35.935Z,1006.38
2022-09-18T01:54:35.944Z,1006.38
2022-09-18T01:55:35.933Z,1006.37
2022-09-18T01:56:35.937Z,1006.36
2022-09-18T01:57:35.959Z,1006.36
2022-09-18T01:58:35.939Z,1006.37
2022-09-18T01:59:35.940Z,1006.61
2022-09-18T02:00:35.935Z,1006.56
2022-09-18T02:01:36.091Z,1006.62
2022-09-18T02:02:36.032Z,1006.58
2022-09-18T02:03:35.932Z,1006.59
2022-09-18T02:04:35.930Z,1006.35
2022-09-18T02:05:35.945Z,1006.39
2022-09-18T02:06:35.927Z,1006.4
2022-09-18T02:07:35.949Z,1006.44
2022-09-18T02:08:35.935Z,1006.45
2022-09-18T02:09:35.931Z,1006.4
2022-09-18T02:10:35.942Z,1006.4
2022-09-18T02:11:35.934Z,1006.47
2022-09-18T02:12:35.950Z,1006.49
2022-09-18T02:13:35.938Z,1006.44
2022-09-18T02:14:35.934Z,1006.48
2022-09-18T02:15:35.934Z,1006.48
2022-09-18T02:16:35.977Z,1006.48
2022-09-18T02:17:35.954Z,1006.49
2022-09-18T02:18:35.928Z,1006.58
2022-09-18T02:19:35.929Z,1006.55
2022-09-18T02:20:35.933Z,1006.55
2022-09-18T02:21:35.937Z,1006.51
2022-09-18T02:22:35.950Z,1006.49
2022-09-18T02:23:35.931Z,1006.47
2022-09-18T02:24:35.931Z,1006.53
2022-09-18T02:25:35.931Z,1006.58
2022-09-18T02:26:35.935Z,1006.44
2022-09-18T02:27:35.939Z,1006.48
2022-09-18T02:28:35.937Z,1006.46
2022-09-18T02:29:35.929Z,1006.51
2022-09-18T02:30:35.918Z,1006.49
2022-09-18T02:31:35.985Z,1006.5
2022-09-18T02:32:35.948Z,1006.52
2022-09-18T02:33:35.934Z,1006.56
2022-09-18T02:34:35.921Z,1006.47
2022-09-18T02:35:35.926Z,1006.48
2022-09-18T02:36:35.922Z,1006.44
2022-09-18T02:37:35.937Z,1006.47
2022-09-18T02:38:35.923Z,1006.42
2022-09-18T02:39:35.921Z,1006.42
2022-09-18T02:40:35.956Z,1006.56
2022-09-18T02:41:35.924Z,1006.62
2022-09-18T02:42:35.933Z,1006.57
2022-09-18T02:43:35.919Z,1006.57
2022-09-18T02:44:35.917Z,1006.46
2022-09-18T02:45:35.920Z,1006.46
2022-09-18T02:46:35.949Z,1006.45
2022-09-18T02:47:35.934Z,1006.44
2022-09-18T02:48:35.917Z,1006.4
2022-09-18T02:49:35.923Z,1006.44
2022-09-18T02:50:35.942Z,1006.38
2022-09-18T02:51:35.929Z,1006.49
2022-09-18T02:52:35.939Z,1006.41
2022-09-18T02:53:35.922Z,1006.46
2022-09-18T02:54:35.940Z,1006.53
2022-09-18T02:55:35.930Z,1006.49
2022-09-18T02:56:35.942Z,1006.55
2022-09-18T02:57:36.118Z,1006.5
2022-09-18T02:58:35.936Z,1006.57
2022-09-18T02:59:35.933Z,1006.77
2022-09-18T03:00:35.937Z,1006.74
2022-09-18T03:01:36.017Z,1006.7
2022-09-18T03:02:36.047Z,1006.72
2022-09-18T03:03:35.934Z,1006.73
2022-09-18T03:04:35.930Z,1006.69
2022-09-18T03:05:35.943Z,1006.79
2022-09-18T03:06:35.937Z,1006.74
2022-09-18T03:07:35.946Z,1006.8
2022-09-18T03:08:35.936Z,1006.76
2022-09-18T03:09:35.940Z,1006.73
2022-09-18T03:10:35.932Z,1006.75
2022-09-18T03:11:35.938Z,1006.71
2022-09-18T03:12:35.943Z,1006.8
2022-09-18T03:13:35.929Z,1006.78
2022-09-18T03:14:35.932Z,1006.81
2022-09-18T03:15:35.939Z,1006.81
2022-09-18T03:16:36.019Z,1006.87
2022-09-18T03:17:35.950Z,1006.84
2022-09-18T03:18:35.930Z,1006.92
2022-09-18T03:19:35.944Z,1006.94
2022-09-18T03:20:35.969Z,1006.85
2022-09-18T03:21:35.933Z,1006.9
2022-09-18T03:22:35.942Z,1007.01
2022-09-18T03:23:35.935Z,1006.99
2022-09-18T03:24:35.933Z,1006.99
2022-09-18T03:25:35.929Z,1007.05
2022-09-18T03:26:35.933Z,1007.1
2022-09-18T03:27:35.946Z,1006.86
2022-09-18T03:28:35.933Z,1006.93
2022-09-18T03:29:35.934Z,1006.91
2022-09-18T03:30:35.930Z,1006.9
2022-09-18T03:31:36.036Z,1006.9
2022-09-18T03:32:35.944Z,1006.93
2022-09-18T03:33:35.933Z,1006.88
2022-09-18T03:34:35.936Z,1006.87
2022-09-18T03:35:35.935Z,1006.9
2022-09-18T03:36:35.925Z,1006.94
2022-09-18T03:37:35.943Z,1006.88
2022-09-18T03:38:35.933Z,1006.89
2022-09-18T03:39:35.935Z,1006.88
2022-09-18T03:40:36.005Z,1006.87
2022-09-18T03:41:35.945Z,1006.88
2022-09-18T03:42:35.950Z,1006.86
2022-09-18T03:43:35.935Z,1006.89
2022-09-18T03:44:35.934Z,1006.85
2022-09-18T03:45:35.933Z,1006.81
2022-09-18T03:46:36.131Z,1006.87
2022-09-18T03:47:36.594Z,1006.84
2022-09-18T03:48:35.917Z,1006.83
2022-09-18T03:49:35.917Z,1006.87
2022-09-18T03:50:35.918Z,1006.87
2022-09-18T03:51:35.917Z,1006.85
2022-09-18T03:52:35.933Z,1006.89
2022-09-18T03:53:35.919Z,1006.9
2022-09-18T03:54:35.928Z,1006.91
2022-09-18T03:55:35.926Z,1006.96
2022-09-18T03:56:35.923Z,1006.95
2022-09-18T03:57:35.943Z,1006.95
2022-09-18T03:58:35.922Z,1006.88
2022-09-18T03:59:35.920Z,1006.92
2022-09-18T04:00:35.965Z,1006.93
2022-09-18T04:01:35.998Z,1006.95
2022-09-18T04:02:35.985Z,1006.92
2022-09-18T04:03:35.982Z,1006.87
2022-09-18T04:04:35.927Z,1006.95
2022-09-18T04:05:35.924Z,1006.94
2022-09-18T04:06:35.936Z,1006.9
2022-09-18T04:07:35.951Z,1007.01
2022-09-18T04:08:35.929Z,1006.99
2022-09-18T04:09:35.935Z,1006.93
2022-09-18T04:10:35.920Z,1007.03
2022-09-18T04:11:35.932Z,1007.03
2022-09-18T04:12:35.946Z,1007.09
2022-09-18T04:13:35.931Z,1007.03
2022-09-18T04:14:35.935Z,1006.92
2022-09-18T04:15:35.934Z,1006.92
2022-09-18T04:16:35.988Z,1007.08
2022-09-18T04:17:35.951Z,1007.07
2022-09-18T04:18:35.938Z,1007
2022-09-18T04:19:35.934Z,1007.02
2022-09-18T04:20:35.926Z,1007.08
2022-09-18T04:21:35.936Z,1007.1
2022-09-18T04:22:35.953Z,1007.13
2022-09-18T04:23:35.929Z,1007.18
2022-09-18T04:24:35.936Z,1007.09
2022-09-18T04:25:35.936Z,1007.18
2022-09-18T04:26:35.940Z,1007.15
2022-09-18T04:27:35.954Z,1007.21
2022-09-18T04:28:35.937Z,1007.22
2022-09-18T04:29:35.932Z,1007.2
2022-09-18T04:30:35.930Z,1007.24
2022-09-18T04:31:35.991Z,1007.25
2022-09-18T04:32:35.952Z,1007.27
2022-09-18T04:33:35.926Z,1007.24
2022-09-18T04:34:35.939Z,1007.17
2022-09-18T04:35:35.924Z,1007.31
2022-09-18T04:36:35.940Z,1007.35
2022-09-18T04:37:35.981Z,1007.17
2022-09-18T04:38:35.935Z,1007.27
2022-09-18T04:39:35.940Z,1007.32
2022-09-18T04:40:36.044Z,1007.39
2022-09-18T04:41:35.934Z,1007.37
2022-09-18T04:42:35.949Z,1007.23
2022-09-18T04:43:35.940Z,1007.33
2022-09-18T04:44:35.935Z,1007.35
2022-09-18T04:45:35.936Z,1007.34
2022-09-18T04:46:35.978Z,1007.33
2022-09-18T04:47:35.937Z,1007.39
2022-09-18T04:48:36.013Z,1007.39
2022-09-18T04:49:35.933Z,1007.42
2022-09-18T04:50:35.921Z,1007.42
2022-09-18T04:51:35.949Z,1007.42
2022-09-18T04:52:35.962Z,1007.42
2022-09-18T04:53:35.938Z,1007.49
2022-09-18T04:54:35.983Z,1007.52
2022-09-18T04:55:35.929Z,1007.51
2022-09-18T04:56:35.929Z,1007.52
2022-09-18T04:57:35.957Z,1007.51
2022-09-18T04:58:35.935Z,1007.45
2022-09-18T04:59:35.916Z,1007.52
2022-09-18T05:00:36.090Z,1007.44
2022-09-18T05:01:35.964Z,1007.51
2022-09-18T05:02:35.937Z,1007.64
2022-09-18T05:03:35.926Z,1007.61
2022-09-18T05:04:35.926Z,1007.58
2022-09-18T05:05:35.924Z,1007.54
2022-09-18T05:06:35.931Z,1007.5
2022-09-18T05:07:35.976Z,1007.58
2022-09-18T05:08:35.930Z,1007.52
2022-09-18T05:09:35.923Z,1007.62
2022-09-18T05:10:35.917Z,1007.43
2022-09-18T05:11:35.922Z,1007.52
2022-09-18T05:12:35.940Z,1007.63
2022-09-18T05:13:35.924Z,1007.58
2022-09-18T05:14:35.925Z,1007.64
2022-09-18T05:15:35.932Z,1007.64
2022-09-18T05:16:36.063Z,1007.62
2022-09-18T05:17:35.934Z,1007.75
2022-09-18T05:18:35.935Z,1007.68
2022-09-18T05:19:35.933Z,1007.62
2022-09-18T05:20:35.919Z,1007.75
2022-09-18T05:21:35.945Z,1007.7
2022-09-18T05:22:35.996Z,1007.79
2022-09-18T05:23:35.932Z,1007.66
2022-09-18T05:24:35.932Z,1007.68
2022-09-18T05:25:35.937Z,1007.85
2022-09-18T05:26:35.935Z,1007.83
2022-09-18T05:27:35.951Z,1007.82
2022-09-18T05:28:36.025Z,1007.94
2022-09-18T05:29:35.942Z,1007.93
2022-09-18T05:30:35.940Z,1007.93
2022-09-18T05:31:35.961Z,1007.98
2022-09-18T05:32:35.949Z,1007.99
2022-09-18T05:33:35.937Z,1008
2022-09-18T05:34:35.929Z,1008.03
2022-09-18T05:35:35.931Z,1008.02
2022-09-18T05:36:35.935Z,1008.07
2022-09-18T05:37:35.939Z,1008.05
2022-09-18T05:38:35.939Z,1008.03
2022-09-18T05:39:35.935Z,1008.08
2022-09-18T05:40:35.979Z,1008.04
2022-09-18T05:41:35.939Z,1008.14
2022-09-18T05:42:35.951Z,1008.1
2022-09-18T05:43:35.936Z,1008.13
2022-09-18T05:44:35.931Z,1008.11
2022-09-18T05:45:35.945Z,1008.12
2022-09-18T05:46:35.963Z,1008.07
2022-09-18T05:47:35.948Z,1008.11
2022-09-18T05:48:35.930Z,1008.1
2022-09-18T05:49:35.932Z,1008.1
2022-09-18T05:50:35.921Z,1008.16
2022-09-18T05:51:35.931Z,1008.15
2022-09-18T05:52:35.955Z,1008.1
2022-09-18T05:53:35.942Z,1008.16
2022-09-18T05:54:35.937Z,1008.16
2022-09-18T05:55:35.926Z,1008.23
2022-09-18T05:56:35.933Z,1008.14
2022-09-18T05:57:35.951Z,1008.21
2022-09-18T05:58:35.936Z,1008.24
2022-09-18T05:59:35.939Z,1008.16
2022-09-18T06:00:35.919Z,1008.26
2022-09-18T06:01:36.001Z,1008.21
2022-09-18T06:02:35.986Z,1008.24
2022-09-18T06:03:35.940Z,1008.2
2022-09-18T06:04:35.935Z,1008.25
2022-09-18T06:05:35.942Z,1008.31
2022-09-18T06:06:35.929Z,1008.3
2022-09-18T06:07:35.950Z,1008.38
2022-09-18T06:08:35.934Z,1008.31
2022-09-18T06:09:35.921Z,1008.31
2022-09-18T06:10:35.930Z,1008.26
2022-09-18T06:11:35.940Z,1008.39
2022-09-18T06:12:35.945Z,1008.42
2022-09-18T06:13:35.921Z,1008.38
2022-09-18T06:14:35.926Z,1008.42
2022-09-18T06:15:35.920Z,1008.42
2022-09-18T06:16:41.322Z,1008.54
2022-09-18T06:17:35.935Z,1008.45
2022-09-18T06:18:35.917Z,1008.44
2022-09-18T06:19:35.917Z,1008.54
2022-09-18T06:20:35.921Z,1008.48
2022-09-18T06:21:35.921Z,1008.53
2022-09-18T06:22:35.935Z,1008.62
2022-09-18T06:23:35.921Z,1008.57
2022-09-18T06:24:35.922Z,1008.52
2022-09-18T06:25:35.922Z,1008.61
2022-09-18T06:26:35.926Z,1008.61
2022-09-18T06:27:35.932Z,1008.59
2022-09-18T06:28:35.917Z,1008.6
2022-09-18T06:29:35.918Z,1008.7
2022-09-18T06:30:35.918Z,1008.67
2022-09-18T06:31:36.162Z,1008.75
2022-09-18T06:32:35.942Z,1008.69
2022-09-18T06:33:35.934Z,1008.76
2022-09-18T06:34:38.732Z,1008.76
2022-09-18T06:35:35.935Z,1008.82
2022-09-18T06:36:35.930Z,1008.79
2022-09-18T06:37:35.949Z,1008.87
2022-09-18T06:38:35.933Z,1008.82
2022-09-18T06:39:35.932Z,1008.77
2022-09-18T06:40:35.984Z,1008.73
2022-09-18T06:41:35.938Z,1008.83
2022-09-18T06:42:35.954Z,1008.8
2022-09-18T06:43:35.946Z,1008.89
2022-09-18T06:44:35.936Z,1008.85
2022-09-18T06:45:35.956Z,1008.92
2022-09-18T06:46:36.011Z,1008.87
2022-09-18T06:47:35.941Z,1008.9
2022-09-18T06:48:35.959Z,1008.94
2022-09-18T06:49:35.936Z,1008.82
2022-09-18T06:50:35.935Z,1008.83
2022-09-18T06:51:35.937Z,1008.87
2022-09-18T06:52:35.942Z,1008.87
2022-09-18T06:53:35.936Z,1008.84
2022-09-18T06:54:35.936Z,1008.91
2022-09-18T06:55:35.937Z,1008.81
2022-09-18T06:56:35.937Z,1008.91
2022-09-18T06:57:35.950Z,1008.86
2022-09-18T06:58:35.920Z,1008.9
2022-09-18T06:59:35.922Z,1008.93
2022-09-18T07:00:35.953Z,1008.98
2022-09-18T07:01:35.987Z,1008.99
2022-09-18T07:02:35.999Z,1009.02
2022-09-18T07:03:35.935Z,1008.94
2022-09-18T07:04:35.936Z,1008.95
2022-09-18T07:05:35.941Z,1008.96
2022-09-18T07:06:35.932Z,1009.09
2022-09-18T07:07:35.939Z,1008.98
2022-09-18T07:08:35.927Z,1009.02
2022-09-18T07:09:35.934Z,1009.04
2022-09-18T07:10:35.926Z,1008.99
2022-09-18T07:11:35.930Z,1009.05
2022-09-18T07:12:35.949Z,1009.14
2022-09-18T07:13:35.938Z,1009.13
2022-09-18T07:14:35.930Z,1009.11
2022-09-18T07:15:35.939Z,1009.11
2022-09-18T07:16:35.984Z,1009.15
2022-09-18T07:17:35.949Z,1009.16
2022-09-18T07:18:35.939Z,1009.18
2022-09-18T07:19:35.996Z,1009.2
2022-09-18T07:20:35.932Z,1009.25
2022-09-18T07:21:35.924Z,1009.19
2022-09-18T07:22:35.935Z,1009.16
2022-09-18T07:23:35.918Z,1009.25
2022-09-18T07:24:35.919Z,1009.2
2022-09-18T07:25:35.950Z,1009.29
2022-09-18T07:26:35.922Z,1009.21
2022-09-18T07:27:35.939Z,1009.21
2022-09-18T07:28:35.920Z,1009.24
2022-09-18T07:29:35.921Z,1009.15
2022-09-18T07:30:35.921Z,1009.16
2022-09-18T07:31:36.043Z,1009.21
2022-09-18T07:32:35.930Z,1009.17
2022-09-18T07:33:35.918Z,1009.23
2022-09-18T07:34:35.923Z,1009.14
2022-09-18T07:35:35.945Z,1009.25
2022-09-18T07:36:35.927Z,1009.25
2022-09-18T07:37:35.948Z,1009.2
2022-09-18T07:38:35.940Z,1009.24
2022-09-18T07:39:35.940Z,1009.25
2022-09-18T07:40:35.972Z,1009.28
2022-09-18T07:41:35.937Z,1009.27
2022-09-18T07:42:35.955Z,1009.36
2022-09-18T07:43:35.935Z,1009.29
2022-09-18T07:44:35.937Z,1009.29
2022-09-18T07:45:35.937Z,1009.38
2022-09-18T07:46:36.085Z,1009.33
2022-09-18T07:47:35.948Z,1009.32
2022-09-18T07:48:35.938Z,1009.39
2022-09-18T07:49:35.947Z,1009.36
2022-09-18T07:50:35.931Z,1009.41
2022-09-18T07:51:35.932Z,1009.31
2022-09-18T07:52:35.942Z,1009.3
2022-09-18T07:53:35.928Z,1009.2
2022-09-18T07:54:35.938Z,1009.21
2022-09-18T07:55:35.940Z,1009.23
2022-09-18T07:56:35.931Z,1009.19
2022-09-18T07:57:35.960Z,1009.32
2022-09-18T07:58:35.939Z,1009.24
2022-09-18T07:59:35.937Z,1009.24
2022-09-18T08:00:35.921Z,1009.21
2022-09-18T08:01:36.043Z,1009.2
2022-09-18T08:02:36.040Z,1009.27
2022-09-18T08:03:41.062Z,1009.19
2022-09-18T08:04:35.942Z,1009.24
2022-09-18T08:05:35.935Z,1009.27
2022-09-18T08:06:35.942Z,1009.25
2022-09-18T08:07:35.940Z,1009.2
2022-09-18T08:08:35.940Z,1009.15
2022-09-18T08:09:35.947Z,1009.19
2022-09-18T08:10:35.925Z,1009.14
2022-09-18T08:11:35.929Z,1009.18
2022-09-18T08:12:35.956Z,1009.11
2022-09-18T08:13:35.940Z,1009.14
2022-09-18T08:14:35.937Z,1009.08
2022-09-18T08:15:35.940Z,1009.08
2022-09-18T08:16:36.007Z,1009.21
2022-09-18T08:17:35.944Z,1009.24
2022-09-18T08:18:35.932Z,1009.23
2022-09-18T08:19:35.939Z,1009.27
2022-09-18T08:20:35.937Z,1009.25
2022-09-18T08:21:35.935Z,1009.25
2022-09-18T08:22:35.943Z,1009.27
2022-09-18T08:23:35.942Z,1009.19
2022-09-18T08:24:35.936Z,1009.3
2022-09-18T08:25:35.935Z,1009.22
2022-09-18T08:26:35.937Z,1009.29
2022-09-18T08:27:35.944Z,1009.34
2022-09-18T08:28:35.931Z,1009.24
2022-09-18T08:29:35.933Z,1009.29
2022-09-18T08:30:35.932Z,1009.32
2022-09-18T08:31:35.970Z,1009.52
2022-09-18T08:32:35.933Z,1009.5
2022-09-18T08:33:35.933Z,1009.49
2022-09-18T08:34:35.921Z,1009.52
2022-09-18T08:35:35.937Z,1009.56
2022-09-18T08:36:35.930Z,1009.49
2022-09-18T08:37:35.937Z,1009.56
2022-09-18T08:38:35.924Z,1009.49
2022-09-18T08:39:35.922Z,1009.51
2022-09-18T08:40:35.978Z,1009.54
2022-09-18T08:41:35.953Z,1009.52
2022-09-18T08:42:36.011Z,1009.59
2022-09-18T08:43:36.142Z,1009.45
2022-09-18T08:44:36.007Z,1009.44
2022-09-18T08:45:36.065Z,1009.41
2022-09-18T08:46:36.070Z,1009.43
2022-09-18T08:47:36.043Z,1009.44
2022-09-18T08:48:35.984Z,1009.41
2022-09-18T08:49:36.067Z,1009.39
2022-09-18T08:50:38.597Z,1009.39
2022-09-18T08:51:36.071Z,1009.44
2022-09-18T08:52:36.115Z,1009.34
2022-09-18T08:53:35.999Z,1009.41
2022-09-18T08:54:35.947Z,1009.42
2022-09-18T08:55:35.979Z,1009.38
2022-09-18T08:56:36.128Z,1009.52
2022-09-18T08:57:36.154Z,1009.42
2022-09-18T08:58:36.056Z,1009.64
2022-09-18T08:59:35.956Z,1009.56
2022-09-18T09:00:36.005Z,1009.58
2022-09-18T09:01:35.934Z,1009.54
2022-09-18T09:02:36.010Z,1009.51
2022-09-18T09:03:36.003Z,1009.54
2022-09-18T09:04:35.935Z,1009.57
2022-09-18T09:05:36.025Z,1009.55
2022-09-18T09:06:35.937Z,1009.51
2022-09-18T09:07:35.939Z,1009.48
2022-09-18T09:08:35.935Z,1009.3
2022-09-18T09:09:35.933Z,1009.29
2022-09-18T09:10:35.941Z,1009.24
2022-09-18T09:11:35.942Z,1009.23
2022-09-18T09:12:35.956Z,1009.21
2022-09-18T09:13:35.942Z,1009.26
2022-09-18T09:14:56.004Z,1009.44
2022-09-18T09:15:35.937Z,1009.44
2022-09-18T09:16:36.064Z,1009.49
2022-09-18T09:17:35.949Z,1009.39
2022-09-18T09:18:35.934Z,1009.39
2022-09-18T09:19:35.941Z,1009.46
2022-09-18T09:20:35.943Z,1009.36
2022-09-18T09:21:35.935Z,1009.39
2022-09-18T09:22:35.952Z,1009.49
2022-09-18T09:23:35.938Z,1009.39
2022-09-18T09:24:35.938Z,1009.44
2022-09-18T09:25:35.931Z,1009.39
2022-09-18T09:26:35.923Z,1009.46
2022-09-18T09:27:35.954Z,1009.46
2022-09-18T09:28:35.943Z,1009.44
2022-09-18T09:29:35.940Z,1009.37
2022-09-18T09:30:35.921Z,1009.34
2022-09-18T09:31:35.983Z,1009.46
2022-09-18T09:32:35.939Z,1009.53
2022-09-18T09:33:35.932Z,1009.37
2022-09-18T09:34:35.925Z,1009.35
2022-09-18T09:35:35.940Z,1009.42
2022-09-18T09:36:35.933Z,1009.39
2022-09-18T09:37:35.938Z,1009.38
2022-09-18T09:38:35.939Z,1009.44
2022-09-18T09:39:35.936Z,1009.51
2022-09-18T09:40:36.019Z,1009.56
2022-09-18T09:41:35.938Z,1009.43
2022-09-18T09:42:35.940Z,1009.49
2022-09-18T09:43:35.926Z,1009.4
2022-09-18T09:44:35.926Z,1009.41
2022-09-18T09:45:35.923Z,1009.48
2022-09-18T09:46:35.997Z,1009.48
2022-09-18T09:47:35.935Z,1009.56
2022-09-18T09:48:35.921Z,1009.45
2022-09-18T09:49:35.921Z,1009.5
2022-09-18T09:50:35.925Z,1009.53
2022-09-18T09:51:35.932Z,1009.57
2022-09-18T09:52:35.942Z,1009.61
2022-09-18T09:53:35.938Z,1009.64
2022-09-18T09:54:35.926Z,1009.63
2022-09-18T09:55:35.944Z,1009.55
2022-09-18T09:56:35.930Z,1009.51
2022-09-18T09:57:35.956Z,1009.59
2022-09-18T09:58:35.935Z,1009.59
2022-09-18T09:59:35.929Z,1009.59
2022-09-18T10:00:35.951Z,1009.64
2022-09-18T10:01:36.049Z,1009.6
2022-09-18T10:02:35.945Z,1009.4
2022-09-18T10:03:35.950Z,1009.38
2022-09-18T10:04:35.935Z,1009.45
2022-09-18T10:05:35.929Z,1009.37
2022-09-18T10:06:35.940Z,1009.27
2022-09-18T10:07:35.941Z,1009.39
2022-09-18T10:08:35.928Z,1009.34
2022-09-18T10:09:35.923Z,1009.4
2022-09-18T10:10:35.932Z,1009.38
2022-09-18T10:11:35.929Z,1009.5
2022-09-18T10:12:35.944Z,1009.48
2022-09-18T10:13:35.939Z,1009.49
2022-09-18T10:14:35.934Z,1009.51
2022-09-18T10:15:35.978Z,1009.51
2022-09-18T10:16:35.980Z,1009.39
2022-09-18T10:17:35.934Z,1009.68
2022-09-18T10:18:35.946Z,1009.7
2022-09-18T10:19:35.931Z,1009.67
2022-09-18T10:20:35.936Z,1009.77
2022-09-18T10:21:36.022Z,1009.66
2022-09-18T10:22:35.940Z,1009.68
2022-09-18T10:23:35.935Z,1009.67
2022-09-18T10:24:35.929Z,1009.65
2022-09-18T10:25:35.936Z,1009.74
2022-09-18T10:26:35.932Z,1009.66
2022-09-18T10:27:35.943Z,1009.64
2022-09-18T10:28:35.937Z,1009.71
2022-09-18T10:29:36.283Z,1009.61
2022-09-18T10:30:35.921Z,1009.66
2022-09-18T10:31:35.961Z,1009.52
2022-09-18T10:32:35.947Z,1009.52
2022-09-18T10:33:35.942Z,1009.52
2022-09-18T10:34:35.933Z,1009.58
2022-09-18T10:35:35.936Z,1009.57
2022-09-18T10:36:35.931Z,1009.62
2022-09-18T10:37:35.938Z,1009.6
2022-09-18T10:38:35.933Z,1009.67
2022-09-18T10:39:35.933Z,1009.62
2022-09-18T10:40:36.013Z,1009.54
2022-09-18T10:41:35.934Z,1009.64
2022-09-18T10:42:35.952Z,1009.63
2022-09-18T10:43:35.932Z,1009.63
2022-09-18T10:44:35.939Z,1009.63
2022-09-18T10:45:35.929Z,1009.61
2022-09-18T10:46:35.966Z,1009.5
2022-09-18T10:47:35.940Z,1009.57
2022-09-18T10:48:35.931Z,1009.54
2022-09-18T10:49:35.936Z,1009.49
2022-09-18T10:50:35.917Z,1009.49
2022-09-18T10:51:35.934Z,1009.42
2022-09-18T10:52:35.956Z,1009.43
2022-09-18T10:53:41.434Z,1009.52
2022-09-18T10:54:40.371Z,1009.38
2022-09-18T10:55:40.388Z,1009.34
2022-09-18T10:56:40.360Z,1009.25
2022-09-18T10:57:40.385Z,1009.23
2022-09-18T10:58:40.401Z,1009.17
2022-09-18T10:59:40.368Z,1009.17
2022-09-18T11:00:40.401Z,1009.18
2022-09-18T11:01:44.540Z,1009.14
2022-09-18T11:02:40.356Z,1009.15
2022-09-18T11:03:40.352Z,1009.22
2022-09-18T11:04:40.416Z,1009.16
2022-09-18T11:05:40.365Z,1009.15
2022-09-18T11:06:40.362Z,1009.23
2022-09-18T11:07:40.370Z,1009.16
2022-09-18T11:08:40.351Z,1009.21
2022-09-18T11:09:40.354Z,1009.05
2022-09-18T11:10:40.395Z,1009.26
2022-09-18T11:11:40.367Z,1009.4
2022-09-18T11:12:40.375Z,1009.43
2022-09-18T11:13:40.371Z,1009.52
2022-09-18T11:14:40.360Z,1009.61
2022-09-18T11:15:40.351Z,1009.61
2022-09-18T11:16:40.382Z,1009.75
2022-09-18T11:17:40.351Z,1009.7
2022-09-18T11:18:40.354Z,1009.6
2022-09-18T11:19:40.348Z,1009.64
2022-09-18T11:20:40.354Z,1009.45
2022-09-18T11:21:40.365Z,1009.57
2022-09-18T11:22:40.351Z,1009.5
2022-09-18T11:23:40.357Z,1009.48
2022-09-18T11:24:43.006Z,1009.47
2022-09-18T11:25:40.357Z,1009.43
2022-09-18T11:26:40.359Z,1009.37
2022-09-18T11:27:40.364Z,1009.35
2022-09-18T11:28:40.348Z,1009.32
2022-09-18T11:29:40.365Z,1009.27
2022-09-18T11:30:40.342Z,1009.23
2022-09-18T11:31:40.406Z,1009.17
2022-09-18T11:32:40.362Z,1009.09
2022-09-18T11:33:40.350Z,1009.13
2022-09-18T11:34:40.350Z,1009.12
2022-09-18T11:35:40.355Z,1009.16
2022-09-18T11:36:40.363Z,1009.11
2022-09-18T11:37:40.349Z,1009.09
2022-09-18T11:38:40.351Z,1009.09
2022-09-18T11:39:40.337Z,1009.05
2022-09-18T11:40:40.456Z,1009.03
2022-09-18T11:41:40.370Z,1009.06
2022-09-18T11:42:40.364Z,1009.04
2022-09-18T11:43:40.353Z,1009.04
2022-09-18T11:44:40.328Z,1009.02
2022-09-18T11:45:40.348Z,1009.07
2022-09-18T11:46:40.435Z,1009.06
2022-09-18T11:47:40.340Z,1009.03
2022-09-18T11:48:40.335Z,1009.04
2022-09-18T11:49:40.327Z,1009.05
2022-09-18T11:50:40.331Z,1009.07
2022-09-18T11:51:40.349Z,1009.01
2022-09-18T11:52:40.337Z,1009.03
2022-09-18T11:53:40.331Z,1009.06
2022-09-18T11:54:40.337Z,1009.05
2022-09-18T11:55:40.332Z,1009.09
2022-09-18T11:56:40.355Z,1009
2022-09-18T11:57:40.383Z,1009.03
2022-09-18T11:58:40.328Z,1009.01
2022-09-18T11:59:40.327Z,1009.02
2022-09-18T12:00:40.328Z,1009.03
2022-09-18T12:01:40.406Z,1008.88
2022-09-18T12:02:40.537Z,1009.02
2022-09-18T12:03:40.333Z,1008.99
2022-09-18T12:04:40.345Z,1008.76
2022-09-18T12:05:40.351Z,1008.85
2022-09-18T12:06:40.361Z,1008.73
2022-09-18T12:07:38.990Z,1008.82